Time;durP1;ratioP1;P1;durP2;ratioP2;P2;SDS_P1;SDS_P2;PMS_P1;PMS_P2;Temp;Humidity;BMP_temperature;BMP_pressure;BME280_temperature;BME280_humidity;BME280_pressure;Samples;Min_cycle;Max_cycle;Signal;HPM_P1;HPM_P2
2024/02/08 00:28:44;;;;;;;4.90;2.30;;;12.30;87.40;;;;;;6368431;22;20066;-81
2024/02/08 00:31:13;;;;;;;4.93;2.13;;;12.30;87.40;;;;;;6292048;22;19995;-81
2024/02/08 01:06:40;;;;;;;5.70;2.40;;;12.20;87.30;;;;;;6273871;22;20049;-81
2024/02/08 01:11:42;;;;;;;5.22;2.80;;;12.30;87.30;;;;;;6337272;22;20276;-82
2024/02/08 01:30:07;;;;;;;5.68;2.70;;;12.30;87.30;;;;;;6358148;22;20031;-81
2024/02/08 01:32:34;;;;;;;4.93;2.65;;;12.20;87.30;;;;;;6337344;22;20006;-81
2024/02/08 01:35:00;;;;;;;6.05;2.78;;;12.20;87.30;;;;;;6340231;22;20026;-81
2024/02/08 01:37:38;;;;;;;6.78;2.70;;;12.30;87.40;;;;;;6367793;22;20045;-81
2024/02/08 01:40:08;;;;;;;4.80;2.53;;;12.40;87.40;;;;;;6341516;22;20013;-81
2024/02/08 01:42:37;;;;;;;5.07;2.63;;;12.20;87.30;;;;;;6341818;22;20017;-81
2024/02/08 01:45:31;;;;;;;4.68;2.40;;;12.20;87.30;;;;;;6341454;22;20009;-81
2024/02/08 01:48:11;;;;;;;4.97;2.53;;;12.20;87.30;;;;;;6341552;22;19991;-81
2024/02/08 01:51:04;;;;;;;5.22;2.72;;;12.30;87.30;;;;;;6341684;22;19997;-81
2024/02/08 01:53:39;;;;;;;4.90;2.35;;;12.10;87.20;;;;;;6368359;22;19989;-80
2024/02/08 01:56:05;;;;;;;6.18;2.58;;;12.30;87.30;;;;;;6341225;22;20010;-81
2024/02/08 01:59:05;;;;;;;5.22;2.58;;;12.30;87.30;;;;;;6314018;22;20036;-81
2024/02/08 02:01:34;;;;;;;;;;;12.20;87.30;;;;;;6342006;22;19983;-81
2024/02/08 03:53:12;;;;;;;5.63;3.35;;;12.20;87.20;;;;;;6353029;22;20022;-81
2024/02/08 03:58:32;;;;;;;5.55;3.08;;;12.20;87.20;;;;;;6364549;22;20013;-81
2024/02/08 04:01:00;;;;;;;5.80;3.20;;;12.30;87.20;;;;;;6314592;22;19987;-81
2024/02/08 04:03:52;;;;;;;6.35;3.65;;;12.30;87.20;;;;;;6342148;22;20017;-81
2024/02/08 04:06:37;;;;;;;6.35;3.38;;;12.20;87.10;;;;;;6336565;22;19984;-81
2024/02/08 04:09:16;;;;;;;5.95;3.10;;;12.30;87.20;;;;;;6337657;22;20015;-80
2024/02/08 05:07:26;;;;;;;7.00;3.90;;;12.20;87.00;;;;;;6306233;22;20048;-82
2024/02/08 05:10:22;;;;;;;6.38;3.88;;;12.30;87.10;;;;;;6279163;22;20060;-81
2024/02/08 05:13:32;;;;;;;6.63;3.90;;;12.20;87.00;;;;;;6278627;22;19984;-82
2024/02/08 05:28:58;;;;;;;6.18;3.42;;;12.10;86.90;;;;;;6357849;22;20002;-81
2024/02/08 05:31:27;;;;;;;6.88;4.05;;;12.20;87.00;;;;;;6339686;22;19990;-81
2024/02/08 05:33:56;;;;;;;6.82;3.95;;;12.20;87.00;;;;;;6315587;22;20050;-81
2024/02/08 05:36:25;;;;;;;7.00;3.78;;;12.00;86.90;;;;;;6340690;22;20015;-81
2024/02/08 05:38:56;;;;;;;7.15;3.95;;;12.10;86.90;;;;;;6341220;22;20013;-81
2024/02/08 05:41:23;;;;;;;6.43;3.97;;;12.10;86.90;;;;;;6341658;22;20156;-81
2024/02/08 07:42:12;;;;;;;7.18;4.30;;;12.10;86.80;;;;;;6367265;22;20026;-81
2024/02/08 07:44:45;;;;;;;7.00;4.07;;;12.10;86.90;;;;;;6342091;22;19994;-80
2024/02/08 07:47:12;;;;;;;6.90;4.20;;;12.00;86.80;;;;;;6339978;22;20013;-82
2024/02/08 07:49:42;;;;;;;6.70;4.47;;;11.90;86.70;;;;;;6341979;22;20009;-81
2024/02/08 07:52:19;;;;;;;7.88;4.55;;;12.10;86.80;;;;;;6341603;22;20020;-80
2024/02/08 07:55:14;;;;;;;6.60;4.10;;;12.10;86.80;;;;;;6341599;22;20050;-81
2024/02/08 07:57:48;;;;;;;7.70;4.40;;;12.00;86.70;;;;;;6322156;22;19995;-80
2024/02/08 08:00:41;;;;;;;7.70;4.70;;;12.10;86.70;;;;;;6342087;22;19983;-80
2024/02/08 08:03:23;;;;;;;8.68;4.57;;;12.00;86.60;;;;;;6341999;22;20036;-81
2024/02/08 08:05:56;;;;;;;7.90;4.82;;;12.20;86.70;;;;;;6342224;22;19987;-81
2024/02/08 08:08:39;;;;;;;8.38;4.65;;;12.10;86.60;;;;;;6367126;22;19999;-80
2024/02/08 08:11:15;;;;;;;7.88;4.40;;;12.10;86.60;;;;;;6341395;22;19987;-81
2024/02/08 08:18:57;;;;;;;7.80;4.88;;;12.00;86.60;;;;;;6337167;22;19987;-81
2024/02/08 08:21:27;;;;;;;7.97;4.82;;;12.10;86.60;;;;;;6309897;22;20011;-81
2024/02/08 08:29:16;;;;;;;8.00;4.90;;;12.10;86.60;;;;;;6364518;22;19998;-81
2024/02/08 08:31:53;;;;;;;6.97;4.40;;;12.10;86.60;;;;;;6341624;22;20045;-81
2024/02/08 08:37:39;;;;;;;7.30;4.63;;;12.10;86.50;;;;;;6367845;22;20033;-81
2024/02/08 08:42:42;;;;;;;7.53;4.70;;;12.10;86.50;;;;;;6368331;22;19998;-81
2024/02/08 08:45:09;;;;;;;7.15;4.18;;;12.10;86.50;;;;;;6341520;22;20016;-80
2024/02/08 08:47:37;;;;;;;7.57;4.22;;;12.00;86.40;;;;;;6341392;22;19998;-80
2024/02/08 08:50:18;;;;;;;6.88;4.68;;;12.10;86.50;;;;;;6364167;22;19987;-81
2024/02/08 08:52:49;;;;;;;7.22;4.63;;;12.10;86.40;;;;;;6341314;22;20038;-80
2024/02/08 09:10:57;;;;;;;7.00;4.57;;;12.10;86.40;;;;;;6367644;22;19998;-81
2024/02/08 09:21:45;;;;;;;7.53;5.00;;;12.10;86.30;;;;;;6365006;22;20032;-81
2024/02/08 09:24:17;;;;;;;8.02;4.65;;;12.00;86.30;;;;;;6340978;22;19987;-81
2024/02/08 09:27:15;;;;;;;7.68;4.68;;;12.00;86.20;;;;;;6341091;22;20857;-81
2024/02/08 09:29:50;;;;;;;7.85;4.70;;;12.10;86.30;;;;;;6340629;22;20013;-81
2024/02/08 09:46:10;;;;;;;7.95;4.72;;;12.10;86.20;;;;;;6360204;22;20029;-80
2024/02/08 09:48:47;;;;;;;7.43;4.70;;;12.20;86.30;;;;;;6368172;22;19991;-81
2024/02/08 09:51:24;;;;;;;7.30;4.53;;;12.50;86.40;;;;;;6341016;22;19987;-80
2024/02/08 09:53:51;;;;;;;7.97;4.82;;;12.20;86.20;;;;;;6316644;22;20021;-81
2024/02/08 09:56:37;;;;;;;7.10;4.47;;;12.30;86.30;;;;;;6341032;22;19987;-81
2024/02/08 09:59:07;;;;;;;7.50;4.80;;;12.20;86.20;;;;;;6341408;22;20016;-80
2024/02/08 10:01:43;;;;;;;7.53;4.70;;;12.20;86.30;;;;;;6342182;22;20039;-81
2024/02/08 10:09:36;;;;;;;8.20;4.80;;;12.20;86.20;;;;;;6355662;22;20010;-80
2024/02/08 10:12:11;;;;;;;8.52;5.32;;;12.10;86.20;;;;;;6341099;22;20006;-81
2024/02/08 10:50:19;;;;;;;7.97;5.00;;;12.20;86.00;;;;;;6365645;22;20013;-81
2024/02/08 10:53:16;;;;;;;7.03;4.78;;;12.20;86.10;;;;;;6340749;22;20001;-80
2024/02/08 10:55:52;;;;;;;8.55;5.00;;;12.10;86.00;;;;;;6340128;22;20007;-80
2024/02/08 10:58:21;;;;;;;7.40;4.57;;;12.20;86.10;;;;;;6315605;22;20024;-80
2024/02/08 11:01:06;;;;;;;7.38;5.00;;;12.20;86.10;;;;;;6340688;22;19991;-80
2024/02/08 11:03:42;;;;;;;7.38;4.68;;;12.70;86.30;;;;;;6340013;22;19991;-80
2024/02/08 11:06:26;;;;;;;7.05;4.88;;;12.10;86.00;;;;;;6340030;22;19983;-81
2024/02/08 11:09:09;;;;;;;7.95;4.88;;;12.20;86.10;;;;;;6340308;22;19987;-80
2024/02/08 11:12:04;;;;;;;7.78;4.95;;;12.10;86.00;;;;;;6340690;22;20047;-81
2024/02/08 12:01:32;;;;;;;8.80;5.22;;;12.10;85.60;;;;;;6369154;22;20012;-81
2024/02/08 17:23:41;;;;;;;5.20;2.80;;;11.90;85.70;;;;;;6357606;22;20207;-83
2024/02/08 17:26:26;;;;;;;5.55;2.90;;;12.00;85.80;;;;;;6312363;22;19995;-85
2024/02/08 17:31:42;;;;;;;5.93;3.03;;;11.90;85.80;;;;;;6316315;22;20036;-85
2024/02/08 17:37:30;;;;;;;5.85;3.13;;;11.90;85.80;;;;;;6367186;22;20010;-85
2024/02/08 17:40:29;;;;;;;5.38;2.63;;;12.00;85.90;;;;;;6323950;22;19983;-85
2024/02/08 17:43:00;;;;;;;;;;;11.80;85.80;;;;;;6370104;22;20046;-86
2024/02/08 17:45:47;;;;;;;6.18;2.85;;;12.00;85.90;;;;;;6343361;22;19882;-84
2024/02/08 17:48:39;;;;;;;6.53;3.20;;;11.90;85.90;;;;;;6347162;22;19994;-85
2024/02/08 17:51:37;;;;;;;6.35;3.05;;;11.90;85.90;;;;;;6343247;22;19986;-85
2024/02/08 17:54:21;;;;;;;6.57;3.13;;;11.90;85.90;;;;;;6343298;22;19991;-86
2024/02/08 17:57:01;;;;;;;5.65;3.20;;;11.80;85.80;;;;;;6369073;22;20037;-84
2024/02/08 18:28:18;;;;;;;4.95;2.83;;;11.90;85.80;;;;;;6361241;22;20024;-83
2024/02/08 18:30:55;;;;;;;4.82;2.55;;;11.90;85.80;;;;;;6347464;22;19997;-84
2024/02/08 18:33:37;;;;;;;6.22;2.60;;;12.00;85.90;;;;;;6367692;22;19991;-85
2024/02/08 19:59:11;;;;;;;4.15;1.90;;;11.80;85.80;;;;;;6366412;22;20014;-82
2024/02/08 20:01:45;;;;;;;4.03;2.05;;;12.00;85.90;;;;;;6346794;22;19991;-85
2024/02/08 20:04:37;;;;;;;4.40;2.08;;;12.50;86.20;;;;;;6370724;22;19979;-82
2024/02/08 20:48:55;;;;;;;4.18;2.03;;;11.80;85.90;;;;;;6338861;22;20011;-83
2024/02/08 21:12:25;;;;;;;3.13;1.80;;;11.80;85.90;;;;;;6365397;22;20003;-83
2024/02/08 21:15:03;;;;;;;2.75;1.63;;;11.70;85.80;;;;;;6344812;22;20035;-79
2024/02/08 21:17:34;;;;;;;3.60;2.00;;;11.90;85.90;;;;;;6337571;22;20002;-79
2024/02/08 23:06:21;;;;;;;2.60;1.52;;;11.80;85.90;;;;;;6367377;22;20005;-83
2024/02/08 23:09:07;;;;;;;2.38;1.30;;;11.80;85.90;;;;;;6342318;22;20016;-82
2024/02/08 23:24:30;;;;;;;2.38;1.45;;;11.80;85.90;;;;;;6360507;22;20010;-80
2024/02/08 23:51:25;;;;;;;2.38;1.40;;;11.70;85.90;;;;;;6338306;22;19999;-81
2024/02/08 23:59:05;;;;;;;2.20;1.30;;;11.80;85.90;;;;;;6367807;22;20009;-83
